sensor_id;sensor_type;location;lat;lon;timestamp;P1;durP1;ratioP1;P2;durP2;ratioP2
6739;SDS011;3407;49.882;10.920;2022-12-18T00:02:24;8.73;;;7.97;;
6739;SDS011;3407;49.882;10.920;2022-12-18T00:07:20;17.30;;;13.13;;
6739;SDS011;3407;49.882;10.920;2022-12-18T00:12:15;12.83;;;11.80;;
6739;SDS011;3407;49.882;10.920;2022-12-18T00:17:11;27.90;;;15.20;;
6739;SDS011;3407;49.882;10.920;2022-12-18T00:22:06;14.70;;;12.63;;
6739;SDS011;3407;49.882;10.920;2022-12-18T00:27:02;20.53;;;15.77;;
6739;SDS011;3407;49.882;10.920;2022-12-18T00:31:57;18.73;;;12.83;;
6739;SDS011;3407;49.882;10.920;2022-12-18T00:36:53;22.67;;;13.83;;
6739;SDS011;3407;49.882;10.920;2022-12-18T00:41:48;9.23;;;8.33;;
6739;SDS011;3407;49.882;10.920;2022-12-18T00:47:02;16.23;;;12.30;;
6739;SDS011;3407;49.882;10.920;2022-12-18T00:51:58;10.90;;;9.80;;
6739;SDS011;3407;49.882;10.920;2022-12-18T00:56:53;9.07;;;8.17;;
6739;SDS011;3407;49.882;10.920;2022-12-18T01:01:50;17.90;;;9.63;;
6739;SDS011;3407;49.882;10.920;2022-12-18T01:06:45;15.97;;;11.80;;
6739;SDS011;3407;49.882;10.920;2022-12-18T01:11:41;14.77;;;10.40;;
6739;SDS011;3407;49.882;10.920;2022-12-18T01:16:36;13.10;;;9.17;;
6739;SDS011;3407;49.882;10.920;2022-12-18T01:21:32;9.27;;;8.50;;
6739;SDS011;3407;49.882;10.920;2022-12-18T01:26:28;9.27;;;8.43;;
6739;SDS011;3407;49.882;10.920;2022-12-18T01:31:28;16.87;;;10.47;;
6739;SDS011;3407;49.882;10.920;2022-12-18T01:36:26;9.97;;;9.03;;
6739;SDS011;3407;49.882;10.920;2022-12-18T01:41:25;13.63;;;10.30;;
6739;SDS011;3407;49.882;10.920;2022-12-18T01:46:42;13.27;;;10.23;;
6739;SDS011;3407;49.882;10.920;2022-12-18T01:51:38;14.70;;;11.00;;
6739;SDS011;3407;49.882;10.920;2022-12-18T01:56:33;16.73;;;11.23;;
6739;SDS011;3407;49.882;10.920;2022-12-18T02:01:29;12.23;;;11.00;;
6739;SDS011;3407;49.882;10.920;2022-12-18T02:06:33;13.67;;;10.07;;
6739;SDS011;3407;49.882;10.920;2022-12-18T02:11:39;10.33;;;9.23;;
6739;SDS011;3407;49.882;10.920;2022-12-18T02:27:04;14.23;;;10.43;;
6739;SDS011;3407;49.882;10.920;2022-12-18T02:32:02;15.30;;;10.80;;
6739;SDS011;3407;49.882;10.920;2022-12-18T02:37:03;10.67;;;9.93;;
6739;SDS011;3407;49.882;10.920;2022-12-18T02:42:02;9.27;;;8.57;;
6739;SDS011;3407;49.882;10.920;2022-12-18T02:47:02;14.83;;;10.80;;
6739;SDS011;3407;49.882;10.920;2022-12-18T02:57:14;51.13;;;10.33;;
6739;SDS011;3407;49.882;10.920;2022-12-18T03:02:21;19.23;;;10.80;;
6739;SDS011;3407;49.882;10.920;2022-12-18T03:07:26;10.87;;;9.97;;
6739;SDS011;3407;49.882;10.920;2022-12-18T03:12:34;6.17;;;5.77;;
6739;SDS011;3407;49.882;10.920;2022-12-18T03:17:33;9.70;;;9.00;;
6739;SDS011;3407;49.882;10.920;2022-12-18T03:22:30;11.83;;;9.93;;
6739;SDS011;3407;49.882;10.920;2022-12-18T03:27:28;10.80;;;8.63;;
6739;SDS011;3407;49.882;10.920;2022-12-18T03:32:28;11.20;;;9.27;;
6739;SDS011;3407;49.882;10.920;2022-12-18T03:37:28;12.17;;;8.67;;
6739;SDS011;3407;49.882;10.920;2022-12-18T03:42:35;9.67;;;8.60;;
6739;SDS011;3407;49.882;10.920;2022-12-18T03:53:20;20.77;;;8.90;;
6739;SDS011;3407;49.882;10.920;2022-12-18T03:58:26;14.47;;;11.23;;
6739;SDS011;3407;49.882;10.920;2022-12-18T04:03:23;10.67;;;9.63;;
6739;SDS011;3407;49.882;10.920;2022-12-18T04:08:20;11.53;;;8.10;;
6739;SDS011;3407;49.882;10.920;2022-12-18T04:13:31;16.67;;;11.63;;
6739;SDS011;3407;49.882;10.920;2022-12-18T04:18:30;10.53;;;9.30;;
6739;SDS011;3407;49.882;10.920;2022-12-18T04:23:26;14.17;;;9.20;;
6739;SDS011;3407;49.882;10.920;2022-12-18T04:28:21;13.33;;;9.77;;
6739;SDS011;3407;49.882;10.920;2022-12-18T04:33:17;13.43;;;12.03;;
6739;SDS011;3407;49.882;10.920;2022-12-18T04:38:12;9.70;;;8.80;;
6739;SDS011;3407;49.882;10.920;2022-12-18T04:43:08;16.43;;;11.63;;
6739;SDS011;3407;49.882;10.920;2022-12-18T04:48:04;12.60;;;11.53;;
6739;SDS011;3407;49.882;10.920;2022-12-18T04:52:59;13.80;;;10.17;;
6739;SDS011;3407;49.882;10.920;2022-12-18T04:57:55;8.97;;;7.67;;
6739;SDS011;3407;49.882;10.920;2022-12-18T05:02:51;13.63;;;8.77;;
6739;SDS011;3407;49.882;10.920;2022-12-18T05:07:46;13.47;;;11.70;;
6739;SDS011;3407;49.882;10.920;2022-12-18T05:12:42;11.77;;;11.00;;
6739;SDS011;3407;49.882;10.920;2022-12-18T05:17:56;11.93;;;10.20;;
6739;SDS011;3407;49.882;10.920;2022-12-18T05:22:52;13.60;;;9.63;;
6739;SDS011;3407;49.882;10.920;2022-12-18T05:27:49;8.43;;;7.93;;
6739;SDS011;3407;49.882;10.920;2022-12-18T05:32:44;13.00;;;11.77;;
6739;SDS011;3407;49.882;10.920;2022-12-18T05:37:40;11.63;;;10.43;;
6739;SDS011;3407;49.882;10.920;2022-12-18T05:42:35;11.60;;;10.60;;
6739;SDS011;3407;49.882;10.920;2022-12-18T05:47:30;9.57;;;9.00;;
6739;SDS011;3407;49.882;10.920;2022-12-18T05:52:26;10.43;;;9.73;;
6739;SDS011;3407;49.882;10.920;2022-12-18T05:57:22;18.83;;;12.43;;
6739;SDS011;3407;49.882;10.920;2022-12-18T06:02:17;23.20;;;13.10;;
6739;SDS011;3407;49.882;10.920;2022-12-18T06:07:13;10.40;;;9.03;;
6739;SDS011;3407;49.882;10.920;2022-12-18T06:12:08;11.30;;;10.17;;
6739;SDS011;3407;49.882;10.920;2022-12-18T06:17:03;9.53;;;8.63;;
6739;SDS011;3407;49.882;10.920;2022-12-18T06:21:59;12.23;;;10.87;;
6739;SDS011;3407;49.882;10.920;2022-12-18T06:26:54;12.30;;;10.90;;
6739;SDS011;3407;49.882;10.920;2022-12-18T06:31:50;15.77;;;9.77;;
6739;SDS011;3407;49.882;10.920;2022-12-18T06:36:45;8.37;;;7.57;;
6739;SDS011;3407;49.882;10.920;2022-12-18T06:41:41;9.40;;;8.57;;
6739;SDS011;3407;49.882;10.920;2022-12-18T06:46:36;8.33;;;7.53;;
6739;SDS011;3407;49.882;10.920;2022-12-18T06:51:32;8.83;;;8.23;;
6739;SDS011;3407;49.882;10.920;2022-12-18T06:56:28;11.37;;;8.07;;
6739;SDS011;3407;49.882;10.920;2022-12-18T07:01:23;7.60;;;7.07;;
6739;SDS011;3407;49.882;10.920;2022-12-18T07:06:20;9.97;;;9.23;;
6739;SDS011;3407;49.882;10.920;2022-12-18T07:11:16;10.27;;;5.87;;
6739;SDS011;3407;49.882;10.920;2022-12-18T07:16:19;9.33;;;7.77;;
6739;SDS011;3407;49.882;10.920;2022-12-18T07:21:17;10.70;;;9.43;;
6739;SDS011;3407;49.882;10.920;2022-12-18T07:26:14;10.70;;;9.83;;
6739;SDS011;3407;49.882;10.920;2022-12-18T07:31:12;9.47;;;8.87;;
6739;SDS011;3407;49.882;10.920;2022-12-18T07:36:09;10.07;;;9.30;;
6739;SDS011;3407;49.882;10.920;2022-12-18T07:41:07;7.47;;;6.90;;
6739;SDS011;3407;49.882;10.920;2022-12-18T07:46:04;11.67;;;10.47;;
6739;SDS011;3407;49.882;10.920;2022-12-18T07:51:02;10.17;;;9.27;;
6739;SDS011;3407;49.882;10.920;2022-12-18T07:55:59;8.80;;;8.13;;
6739;SDS011;3407;49.882;10.920;2022-12-18T08:01:07;13.10;;;9.37;;
6739;SDS011;3407;49.882;10.920;2022-12-18T08:06:04;11.50;;;10.07;;
6739;SDS011;3407;49.882;10.920;2022-12-18T08:11:02;18.77;;;12.93;;
6739;SDS011;3407;49.882;10.920;2022-12-18T08:16:04;12.67;;;11.47;;
6739;SDS011;3407;49.882;10.920;2022-12-18T08:21:11;12.50;;;11.27;;
6739;SDS011;3407;49.882;10.920;2022-12-18T08:26:10;14.70;;;9.67;;
6739;SDS011;3407;49.882;10.920;2022-12-18T08:31:06;13.43;;;11.60;;
6739;SDS011;3407;49.882;10.920;2022-12-18T08:36:02;9.87;;;9.13;;
6739;SDS011;3407;49.882;10.920;2022-12-18T08:41:00;16.07;;;11.30;;
6739;SDS011;3407;49.882;10.920;2022-12-18T08:45:56;11.97;;;10.83;;
6739;SDS011;3407;49.882;10.920;2022-12-18T08:50:55;13.80;;;11.27;;
6739;SDS011;3407;49.882;10.920;2022-12-18T08:55:52;19.30;;;15.27;;
6739;SDS011;3407;49.882;10.920;2022-12-18T09:00:48;21.73;;;13.90;;
6739;SDS011;3407;49.882;10.920;2022-12-18T09:05:45;23.07;;;14.30;;
6739;SDS011;3407;49.882;10.920;2022-12-18T09:10:42;22.10;;;13.73;;
6739;SDS011;3407;49.882;10.920;2022-12-18T09:15:42;24.87;;;17.03;;
6739;SDS011;3407;49.882;10.920;2022-12-18T09:20:42;26.50;;;17.90;;
6739;SDS011;3407;49.882;10.920;2022-12-18T09:25:38;25.70;;;17.80;;
6739;SDS011;3407;49.882;10.920;2022-12-18T09:30:34;25.17;;;17.23;;
6739;SDS011;3407;49.882;10.920;2022-12-18T09:35:32;23.60;;;15.83;;
6739;SDS011;3407;49.882;10.920;2022-12-18T09:40:39;27.07;;;18.73;;
6739;SDS011;3407;49.882;10.920;2022-12-18T09:45:46;34.83;;;20.47;;
6739;SDS011;3407;49.882;10.920;2022-12-18T09:50:46;39.87;;;22.07;;
6739;SDS011;3407;49.882;10.920;2022-12-18T09:55:44;28.03;;;18.13;;
6739;SDS011;3407;49.882;10.920;2022-12-18T10:00:41;25.30;;;16.47;;
6739;SDS011;3407;49.882;10.920;2022-12-18T10:05:39;34.60;;;21.03;;
6739;SDS011;3407;49.882;10.920;2022-12-18T10:10:41;35.50;;;20.33;;
6739;SDS011;3407;49.882;10.920;2022-12-18T10:15:54;38.50;;;20.27;;
6739;SDS011;3407;49.882;10.920;2022-12-18T10:20:57;42.13;;;21.00;;
6739;SDS011;3407;49.882;10.920;2022-12-18T10:30:57;48.87;;;21.77;;
6739;SDS011;3407;49.882;10.920;2022-12-18T10:35:53;35.43;;;21.90;;
6739;SDS011;3407;49.882;10.920;2022-12-18T10:51:02;32.93;;;18.27;;
6739;SDS011;3407;49.882;10.920;2022-12-18T10:55:58;31.17;;;15.93;;
6739;SDS011;3407;49.882;10.920;2022-12-18T11:06:08;29.07;;;17.00;;
6739;SDS011;3407;49.882;10.920;2022-12-18T11:11:19;26.00;;;17.27;;
6739;SDS011;3407;49.882;10.920;2022-12-18T11:16:20;26.73;;;14.63;;
6739;SDS011;3407;49.882;10.920;2022-12-18T11:21:16;24.57;;;15.77;;
6739;SDS011;3407;49.882;10.920;2022-12-18T11:26:11;24.93;;;14.67;;
6739;SDS011;3407;49.882;10.920;2022-12-18T11:31:24;25.40;;;15.50;;
6739;SDS011;3407;49.882;10.920;2022-12-18T11:36:22;31.50;;;17.07;;
6739;SDS011;3407;49.882;10.920;2022-12-18T11:41:32;29.03;;;16.93;;
6739;SDS011;3407;49.882;10.920;2022-12-18T11:47:08;25.07;;;17.20;;
6739;SDS011;3407;49.882;10.920;2022-12-18T12:07:54;29.43;;;16.67;;
6739;SDS011;3407;49.882;10.920;2022-12-18T12:18:06;28.67;;;16.57;;
6739;SDS011;3407;49.882;10.920;2022-12-18T12:29:09;36.50;;;18.40;;
6739;SDS011;3407;49.882;10.920;2022-12-18T12:39:28;28.00;;;15.97;;
6739;SDS011;3407;49.882;10.920;2022-12-18T12:45:13;33.70;;;18.00;;
6739;SDS011;3407;49.882;10.920;2022-12-18T12:49:53;28.67;;;16.17;;
6739;SDS011;3407;49.882;10.920;2022-12-18T12:54:50;32.30;;;18.37;;
6739;SDS011;3407;49.882;10.920;2022-12-18T13:05:04;33.73;;;16.17;;
6739;SDS011;3407;49.882;10.920;2022-12-18T13:15:12;28.33;;;16.53;;
6739;SDS011;3407;49.882;10.920;2022-12-18T13:20:16;25.53;;;16.40;;
6739;SDS011;3407;49.882;10.920;2022-12-18T13:25:27;29.73;;;18.13;;
6739;SDS011;3407;49.882;10.920;2022-12-18T13:40:46;34.10;;;16.40;;
6739;SDS011;3407;49.882;10.920;2022-12-18T13:45:41;31.43;;;15.80;;
6739;SDS011;3407;49.882;10.920;2022-12-18T13:50:42;38.13;;;18.73;;
6739;SDS011;3407;49.882;10.920;2022-12-18T13:55:43;32.70;;;18.93;;
6739;SDS011;3407;49.882;10.920;2022-12-18T14:00:44;31.37;;;17.80;;
6739;SDS011;3407;49.882;10.920;2022-12-18T14:05:39;29.57;;;17.43;;
6739;SDS011;3407;49.882;10.920;2022-12-18T14:10:35;28.80;;;18.20;;
6739;SDS011;3407;49.882;10.920;2022-12-18T14:15:40;29.23;;;18.27;;
6739;SDS011;3407;49.882;10.920;2022-12-18T14:20:39;33.83;;;16.43;;
6739;SDS011;3407;49.882;10.920;2022-12-18T14:25:37;35.50;;;18.60;;
6739;SDS011;3407;49.882;10.920;2022-12-18T14:30:43;34.40;;;17.43;;
6739;SDS011;3407;49.882;10.920;2022-12-18T14:35:41;30.60;;;17.63;;
6739;SDS011;3407;49.882;10.920;2022-12-18T14:40:46;32.20;;;19.47;;
6739;SDS011;3407;49.882;10.920;2022-12-18T14:45:42;36.63;;;19.87;;
6739;SDS011;3407;49.882;10.920;2022-12-18T14:50:39;34.13;;;18.60;;
6739;SDS011;3407;49.882;10.920;2022-12-18T14:55:34;28.80;;;18.17;;
6739;SDS011;3407;49.882;10.920;2022-12-18T15:00:30;39.67;;;20.80;;
6739;SDS011;3407;49.882;10.920;2022-12-18T15:05:27;41.77;;;19.50;;
6739;SDS011;3407;49.882;10.920;2022-12-18T15:10:33;34.00;;;18.90;;
6739;SDS011;3407;49.882;10.920;2022-12-18T15:20:30;34.17;;;18.43;;
6739;SDS011;3407;49.882;10.920;2022-12-18T15:25:30;30.13;;;18.20;;
6739;SDS011;3407;49.882;10.920;2022-12-18T15:30:29;31.70;;;17.90;;
6739;SDS011;3407;49.882;10.920;2022-12-18T15:35:26;34.13;;;20.77;;
6739;SDS011;3407;49.882;10.920;2022-12-18T15:40:22;27.00;;;17.03;;
6739;SDS011;3407;49.882;10.920;2022-12-18T15:45:18;22.50;;;14.93;;
6739;SDS011;3407;49.882;10.920;2022-12-18T15:50:14;33.97;;;17.97;;
6739;SDS011;3407;49.882;10.920;2022-12-18T15:55:14;34.40;;;18.93;;
6739;SDS011;3407;49.882;10.920;2022-12-18T16:00:34;30.97;;;19.60;;
6739;SDS011;3407;49.882;10.920;2022-12-18T16:05:34;34.83;;;18.63;;
6739;SDS011;3407;49.882;10.920;2022-12-18T16:10:29;36.57;;;19.50;;
6739;SDS011;3407;49.882;10.920;2022-12-18T16:15:25;30.33;;;16.83;;
6739;SDS011;3407;49.882;10.920;2022-12-18T16:20:21;27.03;;;15.33;;
6739;SDS011;3407;49.882;10.920;2022-12-18T16:30:22;30.07;;;17.67;;
6739;SDS011;3407;49.882;10.920;2022-12-18T16:35:23;28.40;;;17.33;;
6739;SDS011;3407;49.882;10.920;2022-12-18T16:40:19;33.13;;;18.57;;
6739;SDS011;3407;49.882;10.920;2022-12-18T16:45:16;29.10;;;17.33;;
6739;SDS011;3407;49.882;10.920;2022-12-18T16:50:12;27.77;;;17.73;;
6739;SDS011;3407;49.882;10.920;2022-12-18T16:55:08;31.60;;;18.77;;
6739;SDS011;3407;49.882;10.920;2022-12-18T17:00:04;30.97;;;17.10;;
6739;SDS011;3407;49.882;10.920;2022-12-18T17:05:00;35.27;;;19.10;;
6739;SDS011;3407;49.882;10.920;2022-12-18T17:09:55;35.50;;;19.30;;
6739;SDS011;3407;49.882;10.920;2022-12-18T17:14:51;41.70;;;20.47;;
6739;SDS011;3407;49.882;10.920;2022-12-18T17:19:47;37.00;;;20.67;;
6739;SDS011;3407;49.882;10.920;2022-12-18T17:24:42;32.57;;;18.90;;
6739;SDS011;3407;49.882;10.920;2022-12-18T17:29:38;36.27;;;18.13;;
6739;SDS011;3407;49.882;10.920;2022-12-18T17:34:33;28.43;;;17.53;;
6739;SDS011;3407;49.882;10.920;2022-12-18T17:39:30;32.77;;;19.50;;
6739;SDS011;3407;49.882;10.920;2022-12-18T17:44:27;39.97;;;21.03;;
6739;SDS011;3407;49.882;10.920;2022-12-18T17:49:22;32.70;;;19.17;;
6739;SDS011;3407;49.882;10.920;2022-12-18T17:54:18;30.80;;;18.63;;
6739;SDS011;3407;49.882;10.920;2022-12-18T17:59:14;34.83;;;19.17;;
6739;SDS011;3407;49.882;10.920;2022-12-18T18:04:09;34.43;;;20.70;;
6739;SDS011;3407;49.882;10.920;2022-12-18T18:09:08;39.53;;;19.07;;
6739;SDS011;3407;49.882;10.920;2022-12-18T18:14:05;32.33;;;18.83;;
6739;SDS011;3407;49.882;10.920;2022-12-18T18:19:06;36.40;;;20.07;;
6739;SDS011;3407;49.882;10.920;2022-12-18T18:24:03;47.57;;;21.67;;
6739;SDS011;3407;49.882;10.920;2022-12-18T18:28:59;37.57;;;21.30;;
6739;SDS011;3407;49.882;10.920;2022-12-18T18:33:56;35.90;;;22.23;;
6739;SDS011;3407;49.882;10.920;2022-12-18T18:38:52;39.20;;;20.73;;
6739;SDS011;3407;49.882;10.920;2022-12-18T18:43:48;34.93;;;20.77;;
6739;SDS011;3407;49.882;10.920;2022-12-18T18:48:43;31.77;;;19.57;;
6739;SDS011;3407;49.882;10.920;2022-12-18T18:53:41;28.77;;;18.80;;
6739;SDS011;3407;49.882;10.920;2022-12-18T18:58:37;30.53;;;19.13;;
6739;SDS011;3407;49.882;10.920;2022-12-18T19:03:34;34.13;;;19.10;;
6739;SDS011;3407;49.882;10.920;2022-12-18T19:08:32;29.57;;;19.60;;
6739;SDS011;3407;49.882;10.920;2022-12-18T19:13:32;28.93;;;15.23;;
6739;SDS011;3407;49.882;10.920;2022-12-18T19:18:28;26.80;;;14.07;;
6739;SDS011;3407;49.882;10.920;2022-12-18T19:23:23;28.30;;;16.80;;
6739;SDS011;3407;49.882;10.920;2022-12-18T19:28:20;27.23;;;16.60;;
6739;SDS011;3407;49.882;10.920;2022-12-18T19:33:20;30.13;;;15.43;;
6739;SDS011;3407;49.882;10.920;2022-12-18T19:38:16;18.10;;;12.87;;
6739;SDS011;3407;49.882;10.920;2022-12-18T19:43:12;21.70;;;13.23;;
6739;SDS011;3407;49.882;10.920;2022-12-18T19:48:09;22.53;;;13.50;;
6739;SDS011;3407;49.882;10.920;2022-12-18T19:53:04;26.03;;;13.90;;
6739;SDS011;3407;49.882;10.920;2022-12-18T19:58:00;27.07;;;13.83;;
6739;SDS011;3407;49.882;10.920;2022-12-18T20:02:55;22.90;;;13.97;;
6739;SDS011;3407;49.882;10.920;2022-12-18T20:07:51;25.43;;;12.47;;
6739;SDS011;3407;49.882;10.920;2022-12-18T20:12:46;16.77;;;11.17;;
6739;SDS011;3407;49.882;10.920;2022-12-18T20:17:42;22.60;;;12.27;;
6739;SDS011;3407;49.882;10.920;2022-12-18T20:22:37;13.70;;;10.67;;
6739;SDS011;3407;49.882;10.920;2022-12-18T20:27:33;17.27;;;12.00;;
6739;SDS011;3407;49.882;10.920;2022-12-18T20:32:29;24.37;;;11.50;;
6739;SDS011;3407;49.882;10.920;2022-12-18T20:37:24;16.80;;;10.53;;
6739;SDS011;3407;49.882;10.920;2022-12-18T20:42:20;26.27;;;11.57;;
6739;SDS011;3407;49.882;10.920;2022-12-18T20:47:15;20.23;;;12.00;;
6739;SDS011;3407;49.882;10.920;2022-12-18T20:52:11;22.20;;;13.70;;
6739;SDS011;3407;49.882;10.920;2022-12-18T20:57:06;29.90;;;15.73;;
6739;SDS011;3407;49.882;10.920;2022-12-18T21:02:02;23.27;;;14.07;;
6739;SDS011;3407;49.882;10.920;2022-12-18T21:06:57;14.37;;;11.63;;
6739;SDS011;3407;49.882;10.920;2022-12-18T21:11:53;21.30;;;11.53;;
6739;SDS011;3407;49.882;10.920;2022-12-18T21:17:11;15.67;;;9.83;;
6739;SDS011;3407;49.882;10.920;2022-12-18T21:22:08;13.73;;;10.73;;
6739;SDS011;3407;49.882;10.920;2022-12-18T21:27:04;18.70;;;10.60;;
6739;SDS011;3407;49.882;10.920;2022-12-18T21:31:59;21.03;;;11.10;;
6739;SDS011;3407;49.882;10.920;2022-12-18T21:36:56;26.03;;;14.53;;
6739;SDS011;3407;49.882;10.920;2022-12-18T21:41:54;26.30;;;14.37;;
6739;SDS011;3407;49.882;10.920;2022-12-18T21:47:09;24.63;;;15.93;;
6739;SDS011;3407;49.882;10.920;2022-12-18T21:52:06;16.53;;;12.77;;
6739;SDS011;3407;49.882;10.920;2022-12-18T21:57:02;26.30;;;11.27;;
6739;SDS011;3407;49.882;10.920;2022-12-18T22:02:00;22.67;;;11.77;;
6739;SDS011;3407;49.882;10.920;2022-12-18T22:06:57;21.87;;;13.53;;
6739;SDS011;3407;49.882;10.920;2022-12-18T22:11:55;18.40;;;11.40;;
6739;SDS011;3407;49.882;10.920;2022-12-18T22:16:51;21.63;;;11.40;;
6739;SDS011;3407;49.882;10.920;2022-12-18T22:21:47;17.97;;;11.70;;
6739;SDS011;3407;49.882;10.920;2022-12-18T22:26:43;26.23;;;11.93;;
6739;SDS011;3407;49.882;10.920;2022-12-18T22:31:39;22.40;;;12.17;;
6739;SDS011;3407;49.882;10.920;2022-12-18T22:36:39;19.97;;;12.43;;
6739;SDS011;3407;49.882;10.920;2022-12-18T22:41:35;22.47;;;12.77;;
6739;SDS011;3407;49.882;10.920;2022-12-18T22:46:32;22.47;;;12.53;;
6739;SDS011;3407;49.882;10.920;2022-12-18T22:51:30;17.23;;;13.27;;
6739;SDS011;3407;49.882;10.920;2022-12-18T22:56:26;17.50;;;11.63;;
6739;SDS011;3407;49.882;10.920;2022-12-18T23:01:22;17.13;;;11.23;;
6739;SDS011;3407;49.882;10.920;2022-12-18T23:06:20;21.90;;;11.50;;
6739;SDS011;3407;49.882;10.920;2022-12-18T23:11:17;15.40;;;11.37;;
6739;SDS011;3407;49.882;10.920;2022-12-18T23:16:14;14.97;;;10.23;;
6739;SDS011;3407;49.882;10.920;2022-12-18T23:26:08;15.13;;;9.50;;
6739;SDS011;3407;49.882;10.920;2022-12-18T23:31:06;16.87;;;9.60;;
6739;SDS011;3407;49.882;10.920;2022-12-18T23:36:05;17.63;;;9.77;;
6739;SDS011;3407;49.882;10.920;2022-12-18T23:41:12;13.13;;;10.03;;
6739;SDS011;3407;49.882;10.920;2022-12-18T23:46:16;18.80;;;10.40;;
6739;SDS011;3407;49.882;10.920;2022-12-18T23:51:21;18.80;;;10.00;;
6739;SDS011;3407;49.882;10.920;2022-12-18T23:56:19;14.23;;;9.37;;
